Sandy Valley, Nevada
Current Conditions -  °F | °C
As of 9:56 AM on Wednesday 26 Nov 2014 (Local Time) from KHND Reporting Station
Clear Clear  
Wind Chill: 58°   Ceiling: Unl
Heat Index: 58°   Visibility: 10mi
Dew Point: 12°   Wind: 3mph
Humidity: 16%   Direction: NA
Pressure: 30.43"   Gusts: NA
Location:  35.8439°N, 115.475°W
Report Text: KHND 261756Z VRB03KT 10SM CLR 14/M11 A3043 RMK AO2 51007 T01441111 10144 20027 SLP309
Loading
Personal Weather Stations






























Interactive Weather Map New forecast layout! Learn more

10-Day Weather Forecast

Advertisements
Track Severe Weather on mobile